Time;durP1;ratioP1;P1;durP2;ratioP2;P2;SDS_P1;SDS_P2;PMS_P1;PMS_P2;Temp;Humidity;BMP_temperature;BMP_pressure;BME280_temperature;BME280_humidity;BME280_pressure;Samples;Min_cycle;Max_cycle;Signal;HPM_P1;HPM_P2
2022/04/12 00:01:09;;;;;;;11.65;7.40;;;;;;;3.98;99.06;100799.66;5211731;28;20032;-79
2022/04/12 00:03:39;;;;;;;12.80;7.35;;;;;;;3.89;100.00;100806.59;5213638;28;20034;-79
2022/04/12 00:06:12;;;;;;;19.00;8.45;;;;;;;3.89;100.00;100804.88;5215404;28;20025;-79
2022/04/12 00:08:42;;;;;;;12.27;7.40;;;;;;;3.94;100.00;100800.53;5213988;28;20025;-80
2022/04/12 00:11:12;;;;;;;11.70;7.93;;;;;;;3.94;100.00;100816.06;5197944;28;20573;-78
2022/04/12 00:13:43;;;;;;;15.68;9.23;;;;;;;3.96;100.00;100803.13;5207745;28;20025;-79
2022/04/12 00:16:13;;;;;;;14.98;9.20;;;;;;;3.97;100.00;100800.50;5193445;28;20021;-79
2022/04/12 00:21:34;;;;;;;15.57;8.40;;;;;;;4.12;98.64;100805.59;5198769;28;20041;-79
2022/04/12 00:24:06;;;;;;;15.38;8.35;;;;;;;4.27;97.34;100804.66;5208932;28;20025;-79
2022/04/12 00:26:36;;;;;;;15.48;7.80;;;;;;;4.20;96.33;100800.38;5208914;28;20478;-78
2022/04/12 00:29:06;;;;;;;12.63;7.57;;;;;;;4.28;95.91;100802.06;5195508;28;20033;-78
2022/04/12 00:31:37;;;;;;;14.90;7.78;;;;;;;4.24;96.16;100795.19;5214189;28;20036;-79
2022/04/12 00:34:07;;;;;;;15.02;7.28;;;;;;;4.18;96.34;100795.25;5213945;28;20021;-79
2022/04/12 00:36:37;;;;;;;14.85;7.75;;;;;;;4.18;95.31;100789.19;5214744;28;20030;-78
2022/04/12 00:39:08;;;;;;;14.80;7.20;;;;;;;4.10;94.88;100781.47;5213257;28;20029;-78
2022/04/12 00:41:52;;;;;;;12.93;7.53;;;;;;;3.99;94.94;100780.69;5223328;22;20054;-78
2022/04/12 00:44:34;;;;;;;14.60;8.13;;;;;;;3.99;95.29;100782.41;5205034;28;20025;-79
2022/04/12 00:47:31;;;;;;;12.85;7.70;;;;;;;4.12;94.69;100769.41;5206948;28;20033;-78
2022/04/12 00:50:07;;;;;;;15.32;7.60;;;;;;;4.14;94.71;100767.66;5210355;28;20053;-79
2022/04/12 00:52:44;;;;;;;13.23;7.40;;;;;;;4.25;94.03;100762.41;5203453;28;20037;-78
2022/04/12 00:55:14;;;;;;;13.88;7.55;;;;;;;4.26;93.99;100759.81;5303550;22;20053;-77
2022/04/12 00:57:45;;;;;;;16.30;8.23;;;;;;;4.05;95.65;100767.75;5184431;28;20044;-76
2022/04/12 01:00:16;;;;;;;12.27;7.68;;;;;;;3.99;96.11;100762.59;5205656;28;20021;-78
2022/04/12 01:02:46;;;;;;;15.00;8.52;;;;;;;3.94;98.38;100754.00;5206722;28;20029;-78
2022/04/12 01:05:16;;;;;;;11.20;6.80;;;;;;;3.85;99.11;100758.38;5192584;28;20022;-78
2022/04/12 01:07:47;;;;;;;12.82;7.45;;;;;;;3.65;100.00;100749.88;5186741;28;20029;-78
2022/04/12 01:10:17;;;;;;;12.35;7.85;;;;;;;3.79;100.00;100748.94;5186307;28;20030;-79
2022/04/12 01:12:48;;;;;;;14.00;8.07;;;;;;;3.82;98.69;100743.72;5185589;28;20028;-78
2022/04/12 01:15:22;;;;;;;16.48;8.02;;;;;;;3.87;98.66;100738.53;5175076;28;20045;-77
2022/04/12 01:17:52;;;;;;;13.88;7.65;;;;;;;3.84;98.66;100742.03;5178841;28;20112;-77
2022/04/12 01:20:24;;;;;;;13.00;7.88;;;;;;;3.80;99.40;100735.13;5186171;28;20049;-78
2022/04/12 01:23:15;;;;;;;14.02;7.53;;;;;;;3.84;98.21;100736.84;5184428;28;20631;-77
2022/04/12 01:25:45;;;;;;;13.07;7.70;;;;;;;3.75;99.77;100736.06;5178620;28;20495;-78
2022/04/12 01:28:15;;;;;;;15.05;8.00;;;;;;;3.76;99.42;100724.84;5185320;28;20060;-78
2022/04/12 01:30:45;;;;;;;12.98;7.55;;;;;;;3.89;97.42;100732.50;5185675;28;20075;-78
2022/04/12 01:33:16;;;;;;;12.48;7.63;;;;;;;3.85;98.04;100732.53;5186850;28;20030;-79
2022/04/12 01:35:46;;;;;;;14.32;7.85;;;;;;;3.76;97.64;100735.19;5185927;28;20018;-77
2022/04/12 01:38:16;;;;;;;12.77;7.60;;;;;;;3.68;98.91;100730.06;5186362;28;20384;-78
2022/04/12 01:40:47;;;;;;;17.50;7.50;;;;;;;3.91;97.33;100733.34;5185025;28;20045;-79
2022/04/12 01:43:17;;;;;;;11.90;6.70;;;;;;;4.15;95.63;100740.09;5178778;28;20029;-78
2022/04/12 01:45:47;;;;;;;16.02;6.80;;;;;;;4.09;95.96;100735.81;5185148;28;20053;-79
2022/04/12 01:48:17;;;;;;;11.20;6.72;;;;;;;3.94;96.72;100727.31;5185704;28;20028;-79
2022/04/12 01:50:48;;;;;;;12.40;6.57;;;;;;;3.81;98.72;100736.00;5186304;28;20033;-79
2022/04/12 01:53:19;;;;;;;12.50;6.75;;;;;;;3.89;99.18;100734.22;5172598;28;20108;-78
2022/04/12 01:55:49;;;;;;;13.15;6.75;;;;;;;3.91;97.45;100722.13;5161565;28;20082;-79
2022/04/12 01:58:19;;;;;;;12.38;6.22;;;;;;;4.14;96.08;100721.13;5186678;28;20038;-77
2022/04/12 02:00:50;;;;;;;13.98;6.90;;;;;;;4.05;95.71;100721.19;5185121;28;20026;-78
2022/04/12 02:03:20;;;;;;;12.75;7.13;;;;;;;3.96;95.98;100726.41;5186237;28;20357;-78
2022/04/12 02:05:51;;;;;;;12.63;6.82;;;;;;;4.08;96.48;100726.34;5185808;28;20025;-79
2022/04/12 02:08:22;;;;;;;14.00;6.95;;;;;;;4.07;96.95;100723.75;5186212;28;20068;-77
2022/04/12 02:10:52;;;;;;;13.35;6.60;;;;;;;4.14;94.79;100723.69;5167708;28;20029;-78
2022/04/12 02:13:22;;;;;;;12.50;6.97;;;;;;;4.15;94.42;100725.41;5178536;28;20065;-77
2022/04/12 02:15:52;;;;;;;13.90;6.78;;;;;;;4.08;95.26;100726.34;5183303;28;20288;-78
2022/04/12 02:18:23;;;;;;;11.57;6.25;;;;;;;3.79;97.10;100728.25;5185798;28;20116;-78
2022/04/12 02:20:53;;;;;;;12.68;6.72;;;;;;;3.90;95.71;100729.06;5185894;28;20033;-78
2022/04/12 02:23:23;;;;;;;11.20;6.25;;;;;;;3.99;94.45;100726.38;5179979;28;20109;-79
2022/04/12 02:25:53;;;;;;;9.20;6.05;;;;;;;3.80;96.02;100724.78;5177600;28;20053;-78
2022/04/12 02:28:24;;;;;;;12.25;6.05;;;;;;;3.61;97.72;100727.50;5184434;28;20105;-78
2022/04/12 02:30:54;;;;;;;10.07;5.90;;;;;;;3.75;97.79;100716.22;5186965;28;20088;-78
2022/04/12 02:33:24;;;;;;;9.63;5.68;;;;;;;3.88;95.83;100711.81;5190280;28;20022;-78
2022/04/12 02:35:55;;;;;;;11.98;6.45;;;;;;;4.02;95.17;100716.06;5190180;28;20635;-78
2022/04/12 02:38:25;;;;;;;12.20;6.30;;;;;;;4.15;94.29;100714.22;5190545;28;20352;-79
2022/04/12 02:40:55;;;;;;;11.77;6.10;;;;;;;4.10;94.69;100714.25;5189319;28;20029;-79
2022/04/12 02:43:25;;;;;;;10.20;5.65;;;;;;;4.11;94.78;100715.13;5181819;28;20034;-78
2022/04/12 02:45:56;;;;;;;9.75;5.57;;;;;;;4.20;93.69;100715.03;5186201;28;20494;-77
2022/04/12 02:48:26;;;;;;;10.48;5.90;;;;;;;4.13;93.78;100718.56;5188091;28;20423;-78
2022/04/12 02:50:56;;;;;;;10.52;5.70;;;;;;;3.99;95.25;100705.72;5188556;28;20034;-78
2022/04/12 02:53:27;;;;;;;11.23;5.90;;;;;;;3.98;96.12;100709.16;5184654;28;20022;-77
2022/04/12 02:55:57;;;;;;;10.75;6.32;;;;;;;3.88;96.46;100699.78;5181639;28;20399;-78
2022/04/12 02:58:27;;;;;;;10.07;5.50;;;;;;;3.89;95.19;100698.91;5188263;28;20018;-77
2022/04/12 03:00:57;;;;;;;12.18;5.82;;;;;;;3.86;95.69;100698.94;5188789;28;20545;-79
2022/04/12 03:03:28;;;;;;;10.45;5.50;;;;;;;4.04;93.92;100701.38;5189558;28;20032;-79
2022/04/12 03:05:58;;;;;;;8.15;5.03;;;;;;;4.08;94.17;100703.06;5189170;28;20030;-78
2022/04/12 03:08:28;;;;;;;9.85;5.35;;;;;;;3.96;94.44;100697.97;5188992;28;20032;-79
2022/04/12 03:10:59;;;;;;;10.60;5.30;;;;;;;3.93;95.02;100694.59;5171295;28;20069;-79
2022/04/12 03:13:29;;;;;;;9.73;5.15;;;;;;;3.97;96.01;100697.09;5181926;28;20032;-78
2022/04/12 03:16:00;;;;;;;9.82;5.57;;;;;;;3.90;96.71;100695.44;5185641;28;20380;-76
2022/04/12 03:18:30;;;;;;;8.82;4.72;;;;;;;3.87;97.68;100700.66;5188797;28;20506;-76
2022/04/12 03:21:00;;;;;;;12.48;5.32;;;;;;;3.92;97.81;100692.88;5188054;28;20078;-78
2022/04/12 03:23:31;;;;;;;12.05;5.38;;;;;;;3.93;97.98;100703.19;5184900;28;20392;-76
2022/04/12 03:26:01;;;;;;;10.27;5.43;;;;;;;3.82;97.91;100704.13;5182133;28;20028;-77
2022/04/12 03:28:33;;;;;;;9.15;4.93;;;;;;;3.78;98.79;100700.69;5188606;28;20033;-77
2022/04/12 03:31:04;;;;;;;8.80;5.35;;;;;;;3.87;98.50;100705.81;5188071;28;20030;-77
2022/04/12 03:33:34;;;;;;;10.15;5.03;;;;;;;3.87;98.88;100708.41;5187884;28;20037;-79
2022/04/12 03:36:05;;;;;;;9.45;5.40;;;;;;;3.92;98.31;100704.03;5187835;28;20034;-78
2022/04/12 03:38:36;;;;;;;10.05;5.57;;;;;;;3.96;98.33;100695.41;5185868;28;20480;-76
2022/04/12 03:41:06;;;;;;;7.88;4.90;;;;;;;3.96;98.08;100703.16;5187890;28;20473;-79
2022/04/12 03:43:38;;;;;;;9.43;4.90;;;;;;;3.83;98.35;100698.97;5180970;28;20022;-77
2022/04/12 03:46:08;;;;;;;10.18;5.03;;;;;;;3.88;98.86;100691.16;5185247;28;20026;-78
2022/04/12 03:48:39;;;;;;;9.70;5.28;;;;;;;3.90;98.63;100699.75;5188712;28;20116;-77
2022/04/12 03:51:10;;;;;;;10.60;4.82;;;;;;;3.91;98.56;100694.56;5186777;28;20042;-77
2022/04/12 03:53:40;;;;;;;9.63;4.72;;;;;;;3.95;97.41;100685.91;5182139;28;20104;-78
2022/04/12 03:56:11;;;;;;;13.43;4.95;;;;;;;4.07;96.66;100684.97;5180552;28;20025;-76
2022/04/12 03:58:41;;;;;;;9.15;5.07;;;;;;;3.97;97.33;100691.94;5187366;28;20061;-77
2022/04/12 04:01:11;;;;;;;10.10;5.60;;;;;;;4.17;96.80;100684.03;5185091;28;20112;-77
2022/04/12 04:03:42;;;;;;;9.02;5.20;;;;;;;4.15;96.60;100689.22;5188356;28;20026;-78
2022/04/12 04:06:12;;;;;;;9.30;5.22;;;;;;;4.22;96.34;100688.31;5184670;28;20034;-77
2022/04/12 04:08:42;;;;;;;8.50;4.70;;;;;;;4.16;96.50;100690.91;5186416;28;20048;-77
2022/04/12 04:11:13;;;;;;;10.38;5.00;;;;;;;4.28;96.59;100683.06;5188016;28;20026;-77
2022/04/12 04:13:43;;;;;;;14.48;5.05;;;;;;;4.36;96.28;100691.63;5180434;28;20041;-77
2022/04/12 04:16:13;;;;;;;8.00;4.88;;;;;;;4.38;97.05;100695.06;5184937;28;20022;-76
2022/04/12 04:18:44;;;;;;;8.02;4.90;;;;;;;4.37;98.27;100695.06;5188016;28;20026;-74
2022/04/12 04:21:14;;;;;;;8.13;4.55;;;;;;;4.37;98.13;100693.34;5188318;28;20034;-75
2022/04/12 04:23:45;;;;;;;9.88;4.82;;;;;;;4.44;98.72;100699.34;5182674;28;20022;-75
2022/04/12 04:26:15;;;;;;;9.45;5.10;;;;;;;4.43;98.18;100688.13;5180773;28;20053;-77
2022/04/12 04:28:48;;;;;;;11.00;4.75;;;;;;;4.55;98.20;100692.31;5187328;28;20018;-78
2022/04/12 04:31:19;;;;;;;10.70;4.57;;;;;;;4.57;97.26;100690.56;5179157;28;20029;-76
2022/04/12 04:33:49;;;;;;;10.35;4.80;;;;;;;4.56;97.57;100694.91;5187624;28;20048;-76
2022/04/12 04:36:19;;;;;;;8.80;4.68;;;;;;;4.65;96.61;100699.97;5188309;28;20079;-77
2022/04/12 04:38:50;;;;;;;10.07;5.22;;;;;;;4.66;95.76;100704.25;5168988;28;20088;-77
2022/04/12 04:41:20;;;;;;;11.77;5.13;;;;;;;4.72;95.34;100711.13;5186975;28;20025;-78
2022/04/12 04:43:50;;;;;;;10.23;5.28;;;;;;;4.66;95.63;100708.59;5179505;28;20094;-75
2022/04/12 04:46:21;;;;;;;9.60;4.50;;;;;;;4.77;95.55;100720.56;5184677;28;20089;-75
2022/04/12 04:48:51;;;;;;;9.18;4.60;;;;;;;4.72;96.12;100726.66;5187395;28;20022;-76
2022/04/12 04:51:21;;;;;;;8.48;4.80;;;;;;;4.71;96.73;100712.88;5186448;28;20032;-75
2022/04/12 04:53:58;;;;;;;7.72;4.60;;;;;;;4.66;96.25;100717.22;5181584;28;20026;-76
2022/04/12 04:56:28;;;;;;;9.93;4.70;;;;;;;4.83;96.10;100725.66;5180724;28;20041;-77
2022/04/12 04:58:58;;;;;;;7.80;4.57;;;;;;;4.92;94.66;100704.00;5187309;28;20026;-76
2022/04/12 05:01:29;;;;;;;8.70;4.60;;;;;;;5.18;94.09;100705.41;5184361;28;20032;-77
2022/04/12 05:03:59;;;;;;;7.57;4.50;;;;;;;5.23;93.55;100702.78;5186828;28;20056;-75
2022/04/12 05:06:29;;;;;;;10.68;5.00;;;;;;;5.34;94.41;100712.13;5187001;28;20034;-77
2022/04/12 05:09:00;;;;;;;10.77;5.00;;;;;;;5.46;94.59;100719.75;5187692;28;20021;-75
2022/04/12 05:11:31;;;;;;;10.25;5.15;;;;;;;5.39;94.91;100723.31;5187221;28;20044;-77
2022/04/12 05:14:01;;;;;;;8.88;4.97;;;;;;;5.58;93.90;100727.38;5157201;28;20436;-75
2022/04/12 05:16:32;;;;;;;10.35;5.22;;;;;;;5.63;94.05;100718.69;5178624;28;20065;-76
2022/04/12 05:19:02;;;;;;;7.80;5.05;;;;;;;5.45;93.39;100731.88;5186475;28;20029;-75
2022/04/12 05:21:32;;;;;;;8.05;4.43;;;;;;;5.55;93.13;100742.97;5186034;28;20021;-77
2022/04/12 05:24:04;;;;;;;12.60;4.70;;;;;;;5.64;92.37;100741.13;5180357;28;20034;-77
2022/04/12 05:26:35;;;;;;;7.88;4.78;;;;;;;5.99;91.97;100746.72;5173908;28;20022;-77
2022/04/12 05:29:05;;;;;;;8.65;4.32;;;;;;;6.06;92.35;100755.28;5184442;28;20042;-77
2022/04/12 05:31:35;;;;;;;9.35;4.55;;;;;;;6.30;91.65;100760.09;5185459;28;20084;-76
2022/04/12 05:34:06;;;;;;;10.82;4.18;;;;;;;6.28;92.03;100760.09;5186387;28;20037;-75
2022/04/12 05:36:36;;;;;;;8.07;4.35;;;;;;;6.16;92.94;100751.66;5186866;28;20053;-76
2022/04/12 05:39:06;;;;;;;10.32;4.30;;;;;;;6.15;90.91;100758.59;5187117;28;20030;-78
2022/04/12 05:41:36;;;;;;;5.93;3.88;;;;;;;6.47;91.39;100753.75;5167972;28;20032;-75
2022/04/12 05:44:07;;;;;;;8.02;4.03;;;;;;;6.49;91.33;100758.91;5176287;28;20404;-76
2022/04/12 05:46:37;;;;;;;8.48;4.55;;;;;;;6.52;91.71;100758.84;5180510;28;20026;-76
2022/04/12 05:49:08;;;;;;;7.90;4.60;;;;;;;6.45;91.70;100760.69;5175987;28;20121;-76
2022/04/12 05:51:38;;;;;;;9.73;4.80;;;;;;;6.55;91.50;100766.59;5185349;28;20684;-76
2022/04/12 05:54:08;;;;;;;9.52;4.28;;;;;;;6.62;91.63;100760.44;5178660;28;20427;-76
2022/04/12 05:56:38;;;;;;;7.75;4.30;;;;;;;6.78;90.70;100757.53;5180253;28;20029;-76
2022/04/12 05:59:09;;;;;;;9.38;4.50;;;;;;;6.63;91.93;100756.94;5186671;28;20026;-76
2022/04/12 06:01:40;;;;;;;10.77;4.45;;;;;;;6.84;90.01;100752.25;5168298;28;20121;-77
2022/04/12 06:04:10;;;;;;;8.45;4.40;;;;;;;6.93;90.36;100746.03;5187172;28;20026;-76
2022/04/12 06:06:41;;;;;;;7.93;4.72;;;;;;;7.03;91.11;100760.53;5188158;28;20213;-77
2022/04/12 06:09:11;;;;;;;6.32;4.25;;;;;;;7.42;90.67;100760.66;5174228;28;20030;-78
2022/04/12 06:11:42;;;;;;;7.78;4.50;;;;;;;7.53;90.31;100763.91;5188629;28;20022;-76
2022/04/12 06:14:12;;;;;;;7.30;4.38;;;;;;;7.76;91.20;100752.13;5179508;28;20068;-76
2022/04/12 06:16:42;;;;;;;7.00;4.28;;;;;;;8.06;89.08;100746.22;5188957;28;20029;-77
2022/04/12 06:19:13;;;;;;;7.80;4.35;;;;;;;8.09;87.54;100743.59;5172179;28;20573;-77
2022/04/12 06:21:43;;;;;;;10.10;4.50;;;;;;;8.23;87.23;100745.91;5191073;28;20030;-78
2022/04/12 06:24:14;;;;;;;9.85;4.28;;;;;;;8.29;87.73;100736.19;5167379;28;20029;-77
2022/04/12 06:26:44;;;;;;;7.75;4.03;;;;;;;8.49;83.71;100731.34;5168173;28;20030;-77
2022/04/12 06:29:14;;;;;;;7.72;4.10;;;;;;;8.65;84.45;100737.91;5174032;28;20037;-77
2022/04/12 06:31:45;;;;;;;6.65;3.63;;;;;;;8.55;75.79;100736.41;5190736;28;20026;-78
2022/04/12 06:34:15;;;;;;;7.47;3.67;;;;;;;8.70;78.46;100724.75;5173066;28;20025;-77
2022/04/12 06:36:45;;;;;;;8.20;3.58;;;;;;;8.87;77.54;100714.75;5173658;28;20022;-77
2022/04/12 06:39:15;;;;;;;5.90;3.58;;;;;;;8.93;75.02;100715.44;5190901;28;20025;-77
2022/04/12 06:41:46;;;;;;;7.15;3.60;;;;;;;9.08;75.32;100711.56;5172072;28;20472;-77
2022/04/12 06:44:16;;;;;;;6.50;3.78;;;;;;;9.34;75.04;100710.78;5164714;28;20120;-77
2022/04/12 06:46:46;;;;;;;5.95;3.42;;;;;;;9.75;74.15;100714.78;5172383;28;20021;-77
2022/04/12 06:49:16;;;;;;;8.80;3.92;;;;;;;10.02;74.44;100722.66;5172989;28;20479;-77
2022/04/12 06:51:47;;;;;;;8.27;3.58;;;;;;;10.31;72.69;100732.22;5186342;28;20025;-77
2022/04/12 06:54:17;;;;;;;8.43;3.80;;;;;;;10.45;73.67;100732.63;5200551;22;20022;-78
2022/04/12 06:56:47;;;;;;;6.57;3.50;;;;;;;10.73;71.86;100728.19;5216952;28;20288;-79
2022/04/12 06:59:17;;;;;;;8.00;3.47;;;;;;;10.59;71.35;100728.66;5214356;28;20040;-79
2022/04/12 07:01:48;;;;;;;7.70;3.63;;;;;;;10.45;72.68;100732.63;5217078;28;20086;-79
2022/04/12 07:04:18;;;;;;;7.25;3.80;;;;;;;10.45;70.70;100727.38;5212960;28;20116;-79
2022/04/12 07:06:48;;;;;;;6.75;3.58;;;;;;;10.22;72.27;100724.66;5204515;28;20026;-79
2022/04/12 07:09:20;;;;;;;7.55;3.70;;;;;;;10.38;71.44;100731.97;5196733;28;20087;-79
2022/04/12 07:11:50;;;;;;;5.63;3.42;;;;;;;10.56;72.02;100730.53;5202726;28;20033;-79
2022/04/12 07:14:21;;;;;;;8.50;3.97;;;;;;;10.88;71.71;100727.69;5195144;28;20061;-79
2022/04/12 07:16:52;;;;;;;6.03;3.65;;;;;;;11.11;70.65;100728.59;5202800;28;20021;-79
2022/04/12 07:19:22;;;;;;;7.57;3.75;;;;;;;11.71;68.39;100727.25;5204008;28;20061;-79
2022/04/12 07:21:53;;;;;;;7.80;3.83;;;;;;;12.78;66.39;100712.44;5203104;28;20025;-79
2022/04/12 07:24:23;;;;;;;8.20;4.03;;;;;;;13.35;65.24;100711.63;5191499;28;20029;-79
2022/04/12 07:26:53;;;;;;;7.78;4.25;;;;;;;13.20;64.64;100711.47;5200160;28;20036;-79
2022/04/12 07:29:24;;;;;;;6.13;3.73;;;;;;;13.29;64.04;100711.91;5207088;28;20390;-79
2022/04/12 07:31:54;;;;;;;7.80;3.83;;;;;;;13.44;64.58;100715.59;5206718;28;20279;-79
2022/04/12 07:34:24;;;;;;;6.82;3.75;;;;;;;12.67;65.88;100715.47;5207873;28;20025;-80
2022/04/12 07:36:55;;;;;;;8.07;4.03;;;;;;;11.98;67.01;100712.25;5206672;28;20025;-80
2022/04/12 07:39:25;;;;;;;8.98;3.80;;;;;;;11.74;67.72;100714.03;5206306;28;20095;-80
2022/04/12 07:41:55;;;;;;;7.07;3.60;;;;;;;11.38;69.68;100722.34;5205025;28;20434;-80
2022/04/12 07:44:26;;;;;;;6.38;3.40;;;;;;;11.57;68.48;100726.03;5197508;28;20060;-80
2022/04/12 07:46:56;;;;;;;6.50;3.50;;;;;;;11.66;69.29;100712.63;5206550;28;20021;-80
2022/04/12 07:49:28;;;;;;;6.72;3.40;;;;;;;11.94;67.00;100714.13;5206287;28;20037;-80
2022/04/12 07:51:58;;;;;;;7.88;4.10;;;;;;;11.89;67.85;100715.19;5206174;28;20021;-79
2022/04/12 07:54:28;;;;;;;6.40;3.20;;;;;;;12.78;67.08;100710.63;5200428;28;20028;-79
2022/04/12 07:56:58;;;;;;;5.82;3.17;;;;;;;13.08;66.36;100712.81;5194989;28;20018;-79
2022/04/12 07:59:29;;;;;;;7.38;3.50;;;;;;;13.61;64.38;100713.91;5208792;28;20021;-79
2022/04/12 08:01:59;;;;;;;5.00;3.38;;;;;;;13.42;63.85;100722.72;5208686;28;20021;-79
2022/04/12 08:04:29;;;;;;;7.93;3.63;;;;;;;13.82;65.25;100712.94;5209682;28;20051;-79
2022/04/12 08:07:00;;;;;;;6.17;3.43;;;;;;;14.31;64.59;100708.84;5192129;28;20293;-79
2022/04/12 08:09:30;;;;;;;5.70;3.53;;;;;;;14.56;61.66;100706.75;5191400;28;20339;-79
2022/04/12 08:12:01;;;;;;;6.75;3.65;;;;;;;14.46;62.94;100708.13;5197731;28;20396;-79
2022/04/12 08:14:31;;;;;;;6.07;3.80;;;;;;;14.40;63.72;100703.16;5193098;28;20401;-79
2022/04/12 08:17:01;;;;;;;8.23;4.13;;;;;;;14.42;65.02;100698.69;5201684;28;20029;-79
2022/04/12 08:19:32;;;;;;;9.55;3.50;;;;;;;14.14;64.31;100706.16;5202037;28;20100;-79
2022/04/12 08:22:02;;;;;;;7.15;3.90;;;;;;;14.50;66.15;100710.53;5195423;28;20475;-79
2022/04/12 08:24:33;;;;;;;6.78;3.67;;;;;;;14.41;66.15;100705.72;5196260;28;20022;-79
2022/04/12 08:27:04;;;;;;;5.88;3.38;;;;;;;15.03;64.03;100709.50;5194516;28;20029;-80
2022/04/12 08:29:34;;;;;;;6.25;3.40;;;;;;;15.54;62.29;100712.06;5201111;28;20033;-79
2022/04/12 08:32:05;;;;;;;8.47;3.60;;;;;;;16.23;60.46;100712.63;5200979;28;20511;-79
2022/04/12 08:34:35;;;;;;;7.55;3.60;;;;;;;16.83;59.88;100712.63;5201283;28;20422;-80
2022/04/12 08:37:05;;;;;;;10.50;3.57;;;;;;;17.56;59.32;100709.91;5199713;28;20707;-80
2022/04/12 08:39:35;;;;;;;5.53;3.60;;;;;;;17.78;55.92;100710.25;5200220;28;20779;-80
2022/04/12 08:42:06;;;;;;;4.82;3.10;;;;;;;17.62;55.82;100713.03;5197482;28;20107;-80
2022/04/12 08:44:37;;;;;;;5.22;3.58;;;;;;;17.41;56.89;100708.22;5192271;28;20124;-80
2022/04/12 08:47:07;;;;;;;5.60;3.30;;;;;;;17.10;58.18;100713.59;5200254;28;20025;-80
2022/04/12 08:49:40;;;;;;;5.25;3.30;;;;;;;16.68;56.92;100708.25;5200234;28;20112;-79
2022/04/12 08:52:13;;;;;;;8.30;3.30;;;;;;;16.59;57.64;100706.13;5200316;28;20037;-79
2022/04/12 08:54:45;;;;;;;5.68;3.47;;;;;;;16.65;57.23;100705.78;5195457;28;20116;-79
2022/04/12 08:57:15;;;;;;;4.47;3.10;;;;;;;17.02;57.59;100700.03;5194160;28;20025;-79
2022/04/12 08:59:47;;;;;;;5.87;3.10;;;;;;;17.23;55.53;100709.28;5201487;28;20356;-79
2022/04/12 09:02:17;;;;;;;4.28;3.20;;;;;;;18.21;55.59;100701.31;5200897;28;20276;-79
2022/04/12 09:04:47;;;;;;;6.10;3.40;;;;;;;18.34;57.20;100696.97;5201018;28;20040;-80
2022/04/12 09:07:23;;;;;;;6.05;3.42;;;;;;;17.22;54.84;100697.03;5200615;28;20291;-80
2022/04/12 09:10:12;;;;;;;5.07;3.17;;;;;;;17.50;54.71;100695.28;5194504;28;20087;-80
2022/04/12 09:12:42;;;;;;;7.18;3.15;;;;;;;18.20;56.88;100694.31;5196825;28;20055;-80
2022/04/12 09:15:15;;;;;;;7.25;3.33;;;;;;;17.97;55.96;100702.91;5194491;28;20652;-80
2022/04/12 09:17:48;;;;;;;5.85;2.95;;;;;;;16.37;55.17;100697.75;5201265;28;20024;-80
2022/04/12 09:20:21;;;;;;;7.13;3.30;;;;;;;16.66;54.89;100701.34;5200581;28;20112;-80
2022/04/12 09:22:51;;;;;;;5.60;3.10;;;;;;;16.33;56.34;100701.47;5193426;28;20091;-79
2022/04/12 09:25:22;;;;;;;6.40;3.70;;;;;;;16.11;56.78;100698.34;5192269;28;20025;-79
2022/04/12 09:27:55;;;;;;;7.03;2.75;;;;;;;16.42;57.11;100685.13;5197050;28;20032;-79
2022/04/12 09:30:27;;;;;;;4.00;2.97;;;;;;;15.83;58.07;100703.44;5200869;28;20029;-79
2022/04/12 09:32:57;;;;;;;5.70;3.30;;;;;;;15.26;59.77;100698.66;5200814;28;20026;-79
2022/04/12 09:35:27;;;;;;;6.03;3.30;;;;;;;15.24;58.25;100695.25;5201225;28;20622;-79
2022/04/12 09:37:58;;;;;;;5.97;3.20;;;;;;;15.22;59.39;100697.09;5200704;28;20280;-79
2022/04/12 09:40:28;;;;;;;5.10;3.25;;;;;;;14.79;59.65;100698.53;5200499;28;20083;-79
2022/04/12 09:42:59;;;;;;;5.27;3.43;;;;;;;15.27;60.57;100702.97;5196422;28;20266;-79
2022/04/12 09:45:31;;;;;;;6.30;3.50;;;;;;;15.30;59.64;100701.97;5192565;28;20649;-79
2022/04/12 09:48:04;;;;;;;7.07;3.30;;;;;;;14.94;61.17;100709.13;5183230;28;20483;-79
2022/04/12 09:50:34;;;;;;;5.05;3.38;;;;;;;15.25;61.81;100693.44;5202624;28;20025;-79
2022/04/12 09:53:06;;;;;;;7.40;3.65;;;;;;;15.52;62.76;100684.97;5203533;28;20033;-79
2022/04/12 09:55:39;;;;;;;6.15;3.47;;;;;;;15.49;60.83;100677.22;5191884;28;20113;-79
2022/04/12 09:58:12;;;;;;;6.35;3.25;;;;;;;15.75;60.87;100674.03;5197289;28;20029;-79
2022/04/12 10:00:47;;;;;;;8.52;3.35;;;;;;;15.70;59.78;100677.84;5200384;28;20026;-79
2022/04/12 10:03:20;;;;;;;8.40;3.80;;;;;;;15.88;62.29;100674.22;5200267;28;20038;-79
2022/04/12 10:05:51;;;;;;;6.38;2.90;;;;;;;15.25;60.46;100670.63;5192365;28;20025;-79
2022/04/12 10:08:23;;;;;;;5.28;3.13;;;;;;;14.91;61.46;100668.03;5200759;28;20094;-79
2022/04/12 10:10:53;;;;;;;5.65;3.25;;;;;;;14.76;60.63;100685.53;5200264;28;20100;-79
2022/04/12 10:13:24;;;;;;;7.65;3.30;;;;;;;14.77;60.83;100672.28;5193223;28;20128;-79
2022/04/12 10:15:55;;;;;;;5.22;3.05;;;;;;;15.04;61.32;100658.56;5196667;28;20535;-79
2022/04/12 10:18:27;;;;;;;5.20;2.70;;;;;;;15.08;59.57;100656.63;5200423;28;20117;-79
2022/04/12 10:20:58;;;;;;;5.50;2.95;;;;;;;15.35;61.20;100653.41;5200470;28;20028;-79
2022/04/12 10:23:29;;;;;;;4.40;2.80;;;;;;;15.46;60.54;100656.31;5199841;28;20026;-79
2022/04/12 10:26:00;;;;;;;4.82;2.90;;;;;;;15.16;59.17;100657.94;5191461;28;20367;-79
2022/04/12 10:28:31;;;;;;;5.13;2.72;;;;;;;15.12;58.74;100673.94;5198042;28;20391;-79
2022/04/12 10:31:19;;;;;;;6.43;2.60;;;;;;;15.33;61.82;100664.97;5200574;28;20029;-79
2022/04/12 10:34:16;;;;;;;4.75;2.88;;;;;;;15.21;60.13;100653.25;5192925;28;20049;-79
2022/04/12 10:36:52;;;;;;;;;;;;;;;15.26;60.95;100658.28;5196934;28;20558;-79
2022/04/12 10:39:30;;;;;;;5.10;2.63;;;;;;;15.25;60.59;100652.19;5193754;28;19913;-79
2022/04/12 10:42:06;;;;;;;6.53;2.78;;;;;;;15.41;59.57;100641.69;5198616;28;20380;-79
2022/04/12 10:44:38;;;;;;;4.32;2.70;;;;;;;15.46;60.46;100637.03;5192757;28;20132;-79
2022/04/12 10:47:32;;;;;;;4.18;2.65;;;;;;;15.44;59.64;100617.81;5200339;28;20036;-79
2022/04/12 10:50:06;;;;;;;5.03;2.58;;;;;;;15.77;58.77;100615.97;5196147;28;20040;-79
2022/04/12 10:52:43;;;;;;;4.72;2.60;;;;;;;15.59;59.08;100623.13;5203281;28;20033;-79
2022/04/12 10:55:16;;;;;;;4.85;2.58;;;;;;;15.68;58.40;100630.50;5196325;28;20029;-79
2022/04/12 10:57:46;;;;;;;5.75;2.60;;;;;;;15.46;58.35;100631.75;5201663;28;20037;-79
2022/04/12 11:00:19;;;;;;;6.70;2.55;;;;;;;15.60;59.12;100627.44;5205264;28;20084;-79
2022/04/12 11:02:55;;;;;;;7.00;2.47;;;;;;;15.73;59.24;100607.38;5197033;28;20325;-79
2022/04/12 11:05:46;;;;;;;5.43;2.55;;;;;;;15.98;60.71;100596.28;5203060;28;20025;-79
2022/04/12 11:08:17;;;;;;;5.28;3.05;;;;;;;15.83;59.64;100607.69;5190074;28;20525;-79
2022/04/12 11:10:54;;;;;;;4.00;2.53;;;;;;;16.14;59.24;100600.59;5203979;28;20025;-79
2022/04/12 11:13:28;;;;;;;4.65;2.50;;;;;;;16.13;60.00;100601.53;5190052;28;20117;-79
2022/04/12 11:16:05;;;;;;;6.60;2.60;;;;;;;15.87;58.03;100612.72;5200919;28;20032;-79
2022/04/12 11:19:01;;;;;;;4.20;2.58;;;;;;;15.83;59.09;100600.66;5205460;28;20032;-79
2022/04/12 11:21:54;;;;;;;5.63;2.70;;;;;;;15.75;58.88;100594.97;5184325;28;20493;-78
2022/04/12 11:24:24;;;;;;;4.95;2.90;;;;;;;15.94;59.00;100592.13;5186304;28;20568;-78
2022/04/12 11:27:12;;;;;;;5.63;2.55;;;;;;;15.99;58.79;100612.03;5199621;28;20081;-78
2022/04/12 11:29:43;;;;;;;5.10;2.90;;;;;;;15.78;58.13;100592.16;5205948;28;20057;-79
2022/04/12 11:32:14;;;;;;;7.65;2.65;;;;;;;15.82;57.85;100596.31;5204757;28;20084;-78
2022/04/12 11:34:45;;;;;;;5.47;2.60;;;;;;;15.99;58.92;100590.94;5205541;28;20395;-78
2022/04/12 11:37:17;;;;;;;5.85;2.90;;;;;;;16.27;58.39;100588.41;5205068;28;20021;-79
2022/04/12 11:39:47;;;;;;;4.68;2.92;;;;;;;16.29;58.14;100607.63;5205362;28;20052;-78
2022/04/12 11:42:17;;;;;;;6.03;3.30;;;;;;;16.37;59.68;100588.75;5201102;28;20029;-78
2022/04/12 11:44:53;;;;;;;5.05;2.95;;;;;;;16.48;58.80;100597.72;5180867;28;20947;-78
2022/04/12 11:47:27;;;;;;;;;;;;;;;16.56;56.53;100584.09;5199044;28;20024;-78
2022/04/12 11:49:58;;;;;;;6.28;3.15;;;;;;;16.53;56.63;100590.38;5205441;28;19916;-79